KGR weather

Kulgera Airport
Kulgera, Northern Territory, Australia

Public forecast

Using degrees Celsius for public forecast. Weather courtesy of forecast.io.

Closest aviation weather report (METAR) to Kulgera Airport

Closest report is Ayers Rock Connellan Airport, 131.5 nm (243.6 km) WNW. Retrieved 2020/06/01 19:00 UTC (10 minutes ago):

YAYE 011900Z AUTO 17006KT 9999 // NCD 08/04 Q1025

Closest aviation forecast (TAF) to Kulgera Airport

Closest forecast is Alice Springs Airport, 126.7 nm (234.6 km) NNE. Retrieved 2020/06/01 18:36 UTC (34 minutes ago):

TAF YBAS 011659Z 0118/0218 14006KT CAVOK FM012300 12012KT 9999 SCT040 FM020900 12006KT CAVOK